sensor_id;sensor_type;location;lat;lon;timestamp;temperature;humidity
50067;DHT22;35952;52.524;13.340;2023-07-30T00:01:47;18.60;99.90
50067;DHT22;35952;52.524;13.340;2023-07-30T00:04:12;18.60;99.90
50067;DHT22;35952;52.524;13.340;2023-07-30T00:06:38;18.70;99.90
50067;DHT22;35952;52.524;13.340;2023-07-30T00:09:03;18.60;99.90
50067;DHT22;35952;52.524;13.340;2023-07-30T00:11:29;18.60;99.90
50067;DHT22;35952;52.524;13.340;2023-07-30T00:13:55;18.60;99.90
50067;DHT22;35952;52.524;13.340;2023-07-30T00:16:20;18.60;99.90
50067;DHT22;35952;52.524;13.340;2023-07-30T00:18:46;18.60;99.90
50067;DHT22;35952;52.524;13.340;2023-07-30T00:21:11;18.50;99.90
50067;DHT22;35952;52.524;13.340;2023-07-30T00:23:37;18.50;99.90
50067;DHT22;35952;52.524;13.340;2023-07-30T00:26:02;18.50;99.90
50067;DHT22;35952;52.524;13.340;2023-07-30T00:28:28;18.40;99.90
50067;DHT22;35952;52.524;13.340;2023-07-30T00:30:53;18.50;99.90
50067;DHT22;35952;52.524;13.340;2023-07-30T00:33:19;18.40;99.90
50067;DHT22;35952;52.524;13.340;2023-07-30T00:35:44;18.40;99.90
50067;DHT22;35952;52.524;13.340;2023-07-30T00:38:09;18.40;99.90
50067;DHT22;35952;52.524;13.340;2023-07-30T00:40:41;18.40;99.90
50067;DHT22;35952;52.524;13.340;2023-07-30T00:43:07;18.30;99.90
50067;DHT22;35952;52.524;13.340;2023-07-30T00:45:33;18.30;99.90
50067;DHT22;35952;52.524;13.340;2023-07-30T00:47:59;18.30;99.90
50067;DHT22;35952;52.524;13.340;2023-07-30T00:50:25;18.30;99.90
50067;DHT22;35952;52.524;13.340;2023-07-30T00:52:51;18.30;99.90
50067;DHT22;35952;52.524;13.340;2023-07-30T00:55:17;18.20;99.90
50067;DHT22;35952;52.524;13.340;2023-07-30T00:57:43;18.20;99.90
50067;DHT22;35952;52.524;13.340;2023-07-30T01:00:10;18.10;99.90
50067;DHT22;35952;52.524;13.340;2023-07-30T01:02:36;18.10;99.90
50067;DHT22;35952;52.524;13.340;2023-07-30T01:05:02;18.10;99.90
50067;DHT22;35952;52.524;13.340;2023-07-30T01:07:31;18.10;99.90
50067;DHT22;35952;52.524;13.340;2023-07-30T01:09:57;18.10;99.90
50067;DHT22;35952;52.524;13.340;2023-07-30T01:12:23;18.10;99.90
50067;DHT22;35952;52.524;13.340;2023-07-30T01:14:50;18.00;99.90
50067;DHT22;35952;52.524;13.340;2023-07-30T01:17:16;18.00;99.90
50067;DHT22;35952;52.524;13.340;2023-07-30T01:19:42;18.00;99.90
50067;DHT22;35952;52.524;13.340;2023-07-30T01:22:07;18.00;99.90
50067;DHT22;35952;52.524;13.340;2023-07-30T01:24:33;17.90;99.90
50067;DHT22;35952;52.524;13.340;2023-07-30T01:27:05;17.90;99.90
50067;DHT22;35952;52.524;13.340;2023-07-30T01:29:40;17.90;99.90
50067;DHT22;35952;52.524;13.340;2023-07-30T01:32:08;17.90;99.90
50067;DHT22;35952;52.524;13.340;2023-07-30T01:34:37;17.80;99.90
50067;DHT22;35952;52.524;13.340;2023-07-30T01:37:05;17.80;99.90
50067;DHT22;35952;52.524;13.340;2023-07-30T01:39:32;17.80;99.90
50067;DHT22;35952;52.524;13.340;2023-07-30T01:41:58;17.80;99.90
50067;DHT22;35952;52.524;13.340;2023-07-30T01:44:23;17.80;99.90
50067;DHT22;35952;52.524;13.340;2023-07-30T01:46:49;17.80;99.90
50067;DHT22;35952;52.524;13.340;2023-07-30T01:49:14;17.80;99.90
50067;DHT22;35952;52.524;13.340;2023-07-30T01:51:40;17.80;99.90
50067;DHT22;35952;52.524;13.340;2023-07-30T01:54:05;17.80;99.90
50067;DHT22;35952;52.524;13.340;2023-07-30T01:56:31;17.80;99.90
50067;DHT22;35952;52.524;13.340;2023-07-30T01:58:56;17.80;99.90
50067;DHT22;35952;52.524;13.340;2023-07-30T02:01:23;17.70;99.90
50067;DHT22;35952;52.524;13.340;2023-07-30T02:03:48;17.70;99.90
50067;DHT22;35952;52.524;13.340;2023-07-30T02:06:14;17.70;99.90
50067;DHT22;35952;52.524;13.340;2023-07-30T02:08:39;17.70;99.90
50067;DHT22;35952;52.524;13.340;2023-07-30T02:11:05;17.70;99.90
50067;DHT22;35952;52.524;13.340;2023-07-30T02:13:30;17.60;99.90
50067;DHT22;35952;52.524;13.340;2023-07-30T02:15:56;17.60;99.90
50067;DHT22;35952;52.524;13.340;2023-07-30T02:18:21;17.60;99.90
50067;DHT22;35952;52.524;13.340;2023-07-30T02:20:47;17.60;99.90
50067;DHT22;35952;52.524;13.340;2023-07-30T02:23:14;17.50;99.90
50067;DHT22;35952;52.524;13.340;2023-07-30T02:25:41;17.50;99.90
50067;DHT22;35952;52.524;13.340;2023-07-30T02:28:07;17.60;99.90
50067;DHT22;35952;52.524;13.340;2023-07-30T02:30:33;17.60;99.90
50067;DHT22;35952;52.524;13.340;2023-07-30T02:32:59;17.60;99.90
50067;DHT22;35952;52.524;13.340;2023-07-30T02:35:24;17.60;99.90
50067;DHT22;35952;52.524;13.340;2023-07-30T02:37:50;17.60;99.90
50067;DHT22;35952;52.524;13.340;2023-07-30T02:40:15;17.60;99.90
50067;DHT22;35952;52.524;13.340;2023-07-30T02:42:41;17.60;99.90
50067;DHT22;35952;52.524;13.340;2023-07-30T02:45:07;17.60;99.90
50067;DHT22;35952;52.524;13.340;2023-07-30T02:47:32;17.60;99.90
50067;DHT22;35952;52.524;13.340;2023-07-30T02:49:58;17.60;99.90
50067;DHT22;35952;52.524;13.340;2023-07-30T02:52:23;17.50;99.90
50067;DHT22;35952;52.524;13.340;2023-07-30T02:54:49;17.50;99.90
50067;DHT22;35952;52.524;13.340;2023-07-30T02:57:14;17.50;99.90
50067;DHT22;35952;52.524;13.340;2023-07-30T02:59:40;17.50;99.90
50067;DHT22;35952;52.524;13.340;2023-07-30T03:02:06;17.50;99.90
50067;DHT22;35952;52.524;13.340;2023-07-30T03:04:31;17.50;99.90
50067;DHT22;35952;52.524;13.340;2023-07-30T03:06:57;17.50;99.90
50067;DHT22;35952;52.524;13.340;2023-07-30T03:09:22;17.40;99.90
50067;DHT22;35952;52.524;13.340;2023-07-30T03:11:51;17.50;99.90
50067;DHT22;35952;52.524;13.340;2023-07-30T03:14:17;17.50;99.90
50067;DHT22;35952;52.524;13.340;2023-07-30T03:16:46;17.50;99.90
50067;DHT22;35952;52.524;13.340;2023-07-30T03:19:11;17.50;99.90
50067;DHT22;35952;52.524;13.340;2023-07-30T03:21:37;17.50;99.90
50067;DHT22;35952;52.524;13.340;2023-07-30T03:24:03;17.50;99.90
50067;DHT22;35952;52.524;13.340;2023-07-30T03:26:28;17.50;99.90
50067;DHT22;35952;52.524;13.340;2023-07-30T03:28:54;17.50;99.90
50067;DHT22;35952;52.524;13.340;2023-07-30T03:31:19;17.50;99.90
50067;DHT22;35952;52.524;13.340;2023-07-30T03:33:45;17.50;99.90
50067;DHT22;35952;52.524;13.340;2023-07-30T03:36:11;17.50;99.90
50067;DHT22;35952;52.524;13.340;2023-07-30T03:38:37;17.50;99.90
50067;DHT22;35952;52.524;13.340;2023-07-30T03:41:04;17.60;99.90
50067;DHT22;35952;52.524;13.340;2023-07-30T03:43:31;17.60;99.90
50067;DHT22;35952;52.524;13.340;2023-07-30T03:45:56;17.50;99.90
50067;DHT22;35952;52.524;13.340;2023-07-30T03:48:22;17.50;99.90
50067;DHT22;35952;52.524;13.340;2023-07-30T03:50:47;17.50;99.90
50067;DHT22;35952;52.524;13.340;2023-07-30T03:53:13;17.50;99.90
50067;DHT22;35952;52.524;13.340;2023-07-30T03:55:39;17.50;99.90
50067;DHT22;35952;52.524;13.340;2023-07-30T03:58:05;17.50;99.90
50067;DHT22;35952;52.524;13.340;2023-07-30T04:00:30;17.50;99.90
50067;DHT22;35952;52.524;13.340;2023-07-30T04:02:56;17.50;99.90
50067;DHT22;35952;52.524;13.340;2023-07-30T04:05:22;17.40;99.90
50067;DHT22;35952;52.524;13.340;2023-07-30T04:07:47;17.30;99.90
50067;DHT22;35952;52.524;13.340;2023-07-30T04:10:13;17.40;99.90
50067;DHT22;35952;52.524;13.340;2023-07-30T04:12:41;17.40;99.90
50067;DHT22;35952;52.524;13.340;2023-07-30T04:15:07;17.60;99.90
50067;DHT22;35952;52.524;13.340;2023-07-30T04:17:35;17.60;99.90
50067;DHT22;35952;52.524;13.340;2023-07-30T04:20:01;17.60;99.90
50067;DHT22;35952;52.524;13.340;2023-07-30T04:22:27;17.70;99.90
50067;DHT22;35952;52.524;13.340;2023-07-30T04:24:53;17.90;99.90
50067;DHT22;35952;52.524;13.340;2023-07-30T04:27:18;17.80;99.90
50067;DHT22;35952;52.524;13.340;2023-07-30T04:29:44;17.70;99.90
50067;DHT22;35952;52.524;13.340;2023-07-30T04:32:09;17.60;99.90
50067;DHT22;35952;52.524;13.340;2023-07-30T04:34:35;17.60;99.90
50067;DHT22;35952;52.524;13.340;2023-07-30T04:37:00;17.70;99.90
50067;DHT22;35952;52.524;13.340;2023-07-30T04:39:27;17.90;99.90
50067;DHT22;35952;52.524;13.340;2023-07-30T04:41:52;18.00;99.90
50067;DHT22;35952;52.524;13.340;2023-07-30T04:44:18;18.10;99.90
50067;DHT22;35952;52.524;13.340;2023-07-30T04:46:43;18.20;99.90
50067;DHT22;35952;52.524;13.340;2023-07-30T04:49:09;18.10;99.90
50067;DHT22;35952;52.524;13.340;2023-07-30T04:51:34;18.30;99.90
50067;DHT22;35952;52.524;13.340;2023-07-30T04:54:00;18.50;99.90
50067;DHT22;35952;52.524;13.340;2023-07-30T04:56:25;18.60;99.90
50067;DHT22;35952;52.524;13.340;2023-07-30T04:58:52;18.70;99.90
50067;DHT22;35952;52.524;13.340;2023-07-30T05:01:18;18.90;99.90
50067;DHT22;35952;52.524;13.340;2023-07-30T05:03:43;19.10;99.90
50067;DHT22;35952;52.524;13.340;2023-07-30T05:06:09;19.20;99.90
50067;DHT22;35952;52.524;13.340;2023-07-30T05:08:34;19.30;99.90
50067;DHT22;35952;52.524;13.340;2023-07-30T05:11:00;19.40;99.90
50067;DHT22;35952;52.524;13.340;2023-07-30T05:13:25;19.50;99.90
50067;DHT22;35952;52.524;13.340;2023-07-30T05:15:51;19.60;99.90
50067;DHT22;35952;52.524;13.340;2023-07-30T05:18:16;19.70;99.90
50067;DHT22;35952;52.524;13.340;2023-07-30T05:20:42;19.80;99.90
50067;DHT22;35952;52.524;13.340;2023-07-30T05:23:07;19.90;99.90
50067;DHT22;35952;52.524;13.340;2023-07-30T05:25:33;20.00;99.90
50067;DHT22;35952;52.524;13.340;2023-07-30T05:27:58;20.10;99.90
50067;DHT22;35952;52.524;13.340;2023-07-30T05:30:24;20.40;99.90
50067;DHT22;35952;52.524;13.340;2023-07-30T05:32:49;20.60;99.90
50067;DHT22;35952;52.524;13.340;2023-07-30T05:35:15;21.10;99.90
50067;DHT22;35952;52.524;13.340;2023-07-30T05:37:40;21.10;99.90
50067;DHT22;35952;52.524;13.340;2023-07-30T05:40:06;20.90;99.90
50067;DHT22;35952;52.524;13.340;2023-07-30T05:42:32;20.60;99.90
50067;DHT22;35952;52.524;13.340;2023-07-30T05:44:58;20.40;99.90
50067;DHT22;35952;52.524;13.340;2023-07-30T05:47:23;20.20;99.90
50067;DHT22;35952;52.524;13.340;2023-07-30T05:49:49;20.00;99.90
50067;DHT22;35952;52.524;13.340;2023-07-30T05:52:14;19.90;99.90
50067;DHT22;35952;52.524;13.340;2023-07-30T05:54:40;19.80;99.90
50067;DHT22;35952;52.524;13.340;2023-07-30T05:57:05;20.00;99.90
50067;DHT22;35952;52.524;13.340;2023-07-30T05:59:31;20.10;99.90
50067;DHT22;35952;52.524;13.340;2023-07-30T06:01:56;20.90;99.90
50067;DHT22;35952;52.524;13.340;2023-07-30T06:04:24;22.00;99.90
50067;DHT22;35952;52.524;13.340;2023-07-30T06:06:50;23.00;99.90
50067;DHT22;35952;52.524;13.340;2023-07-30T06:09:15;23.80;99.90
50067;DHT22;35952;52.524;13.340;2023-07-30T06:11:41;24.30;99.90
50067;DHT22;35952;52.524;13.340;2023-07-30T06:14:06;25.00;99.90
50067;DHT22;35952;52.524;13.340;2023-07-30T06:16:32;25.70;99.90
50067;DHT22;35952;52.524;13.340;2023-07-30T06:18:57;26.20;99.90
50067;DHT22;35952;52.524;13.340;2023-07-30T06:21:22;26.20;99.90
50067;DHT22;35952;52.524;13.340;2023-07-30T06:23:48;25.90;99.90
50067;DHT22;35952;52.524;13.340;2023-07-30T06:26:13;25.80;99.90
50067;DHT22;35952;52.524;13.340;2023-07-30T06:28:39;25.10;99.90
50067;DHT22;35952;52.524;13.340;2023-07-30T06:31:04;24.30;99.90
50067;DHT22;35952;52.524;13.340;2023-07-30T06:33:30;23.60;99.90
50067;DHT22;35952;52.524;13.340;2023-07-30T06:35:55;23.60;99.90
50067;DHT22;35952;52.524;13.340;2023-07-30T06:38:22;23.70;99.90
50067;DHT22;35952;52.524;13.340;2023-07-30T06:40:47;23.50;99.90
50067;DHT22;35952;52.524;13.340;2023-07-30T06:43:13;23.00;99.90
50067;DHT22;35952;52.524;13.340;2023-07-30T06:45:38;22.60;99.90
50067;DHT22;35952;52.524;13.340;2023-07-30T06:48:04;22.20;99.90
50067;DHT22;35952;52.524;13.340;2023-07-30T06:50:29;21.90;99.90
50067;DHT22;35952;52.524;13.340;2023-07-30T06:52:55;21.60;99.90
50067;DHT22;35952;52.524;13.340;2023-07-30T06:55:20;21.40;99.90
50067;DHT22;35952;52.524;13.340;2023-07-30T06:57:46;21.30;99.90
50067;DHT22;35952;52.524;13.340;2023-07-30T07:00:12;21.70;99.90
50067;DHT22;35952;52.524;13.340;2023-07-30T07:02:37;22.00;99.90
50067;DHT22;35952;52.524;13.340;2023-07-30T07:05:03;22.50;99.90
50067;DHT22;35952;52.524;13.340;2023-07-30T07:07:30;23.00;99.90
50067;DHT22;35952;52.524;13.340;2023-07-30T07:09:56;23.30;99.90
50067;DHT22;35952;52.524;13.340;2023-07-30T07:12:21;23.50;99.90
50067;DHT22;35952;52.524;13.340;2023-07-30T07:14:46;23.50;99.90
50067;DHT22;35952;52.524;13.340;2023-07-30T07:17:12;23.40;99.90
50067;DHT22;35952;52.524;13.340;2023-07-30T07:19:38;23.30;99.90
50067;DHT22;35952;52.524;13.340;2023-07-30T07:22:04;23.30;99.90
50067;DHT22;35952;52.524;13.340;2023-07-30T07:24:30;23.40;99.90
50067;DHT22;35952;52.524;13.340;2023-07-30T07:26:56;23.50;99.90
50067;DHT22;35952;52.524;13.340;2023-07-30T07:29:22;23.60;99.90
50067;DHT22;35952;52.524;13.340;2023-07-30T07:31:47;24.00;99.90
50067;DHT22;35952;52.524;13.340;2023-07-30T07:34:13;24.50;99.90
50067;DHT22;35952;52.524;13.340;2023-07-30T07:36:38;24.80;99.90
50067;DHT22;35952;52.524;13.340;2023-07-30T07:39:04;24.70;99.90
50067;DHT22;35952;52.524;13.340;2023-07-30T07:41:29;24.50;99.90
50067;DHT22;35952;52.524;13.340;2023-07-30T07:43:55;24.50;99.90
50067;DHT22;35952;52.524;13.340;2023-07-30T07:46:22;24.40;99.90
50067;DHT22;35952;52.524;13.340;2023-07-30T07:48:47;24.30;99.90
50067;DHT22;35952;52.524;13.340;2023-07-30T07:51:13;24.20;99.90
50067;DHT22;35952;52.524;13.340;2023-07-30T07:53:39;24.30;99.90
50067;DHT22;35952;52.524;13.340;2023-07-30T07:56:04;24.40;99.90
50067;DHT22;35952;52.524;13.340;2023-07-30T07:58:30;24.60;99.90
50067;DHT22;35952;52.524;13.340;2023-07-30T08:00:56;24.40;99.90
50067;DHT22;35952;52.524;13.340;2023-07-30T08:03:23;24.40;99.90
50067;DHT22;35952;52.524;13.340;2023-07-30T08:05:49;24.30;99.90
50067;DHT22;35952;52.524;13.340;2023-07-30T08:08:15;24.00;99.90
50067;DHT22;35952;52.524;13.340;2023-07-30T08:10:41;23.70;99.90
50067;DHT22;35952;52.524;13.340;2023-07-30T08:13:10;23.30;99.90
50067;DHT22;35952;52.524;13.340;2023-07-30T08:15:35;23.30;99.90
50067;DHT22;35952;52.524;13.340;2023-07-30T08:18:01;23.10;99.90
50067;DHT22;35952;52.524;13.340;2023-07-30T08:20:26;23.30;99.90
50067;DHT22;35952;52.524;13.340;2023-07-30T08:22:52;23.40;99.90
50067;DHT22;35952;52.524;13.340;2023-07-30T08:25:17;23.70;99.90
50067;DHT22;35952;52.524;13.340;2023-07-30T08:27:43;23.80;99.90
50067;DHT22;35952;52.524;13.340;2023-07-30T08:30:09;23.70;99.90
50067;DHT22;35952;52.524;13.340;2023-07-30T08:32:34;23.70;99.90
50067;DHT22;35952;52.524;13.340;2023-07-30T08:35:00;23.80;99.90
50067;DHT22;35952;52.524;13.340;2023-07-30T08:37:25;23.70;99.90
50067;DHT22;35952;52.524;13.340;2023-07-30T08:39:52;23.50;99.90
50067;DHT22;35952;52.524;13.340;2023-07-30T08:42:17;23.30;99.90
50067;DHT22;35952;52.524;13.340;2023-07-30T08:44:43;23.20;99.90
50067;DHT22;35952;52.524;13.340;2023-07-30T08:47:08;23.10;99.90
50067;DHT22;35952;52.524;13.340;2023-07-30T08:49:34;23.30;99.90
50067;DHT22;35952;52.524;13.340;2023-07-30T08:52:01;23.40;99.90
50067;DHT22;35952;52.524;13.340;2023-07-30T08:54:30;23.30;99.90
50067;DHT22;35952;52.524;13.340;2023-07-30T08:56:56;23.20;99.90
50067;DHT22;35952;52.524;13.340;2023-07-30T08:59:23;23.40;99.90
50067;DHT22;35952;52.524;13.340;2023-07-30T09:01:51;23.60;99.90
50067;DHT22;35952;52.524;13.340;2023-07-30T09:04:18;23.80;99.90
50067;DHT22;35952;52.524;13.340;2023-07-30T09:06:47;23.90;99.90
50067;DHT22;35952;52.524;13.340;2023-07-30T09:09:13;23.90;99.90
50067;DHT22;35952;52.524;13.340;2023-07-30T09:11:39;23.90;99.90
50067;DHT22;35952;52.524;13.340;2023-07-30T09:14:06;24.00;99.90
50067;DHT22;35952;52.524;13.340;2023-07-30T09:16:32;24.20;99.90
50067;DHT22;35952;52.524;13.340;2023-07-30T09:18:57;24.40;99.90
50067;DHT22;35952;52.524;13.340;2023-07-30T09:21:30;24.50;99.90
50067;DHT22;35952;52.524;13.340;2023-07-30T09:23:56;24.50;99.90
50067;DHT22;35952;52.524;13.340;2023-07-30T09:26:23;24.90;99.90
50067;DHT22;35952;52.524;13.340;2023-07-30T09:28:48;25.30;99.90
50067;DHT22;35952;52.524;13.340;2023-07-30T09:31:14;25.40;99.90
50067;DHT22;35952;52.524;13.340;2023-07-30T09:33:42;25.50;99.90
50067;DHT22;35952;52.524;13.340;2023-07-30T09:36:08;25.30;99.90
50067;DHT22;35952;52.524;13.340;2023-07-30T09:38:42;25.10;99.90
50067;DHT22;35952;52.524;13.340;2023-07-30T09:41:08;25.20;99.90
50067;DHT22;35952;52.524;13.340;2023-07-30T09:43:35;25.90;99.90
50067;DHT22;35952;52.524;13.340;2023-07-30T09:46:02;26.80;99.90
50067;DHT22;35952;52.524;13.340;2023-07-30T09:48:30;27.20;99.90
50067;DHT22;35952;52.524;13.340;2023-07-30T09:50:58;27.00;99.90
50067;DHT22;35952;52.524;13.340;2023-07-30T09:53:24;26.90;99.90
50067;DHT22;35952;52.524;13.340;2023-07-30T09:55:50;27.00;99.90
50067;DHT22;35952;52.524;13.340;2023-07-30T09:58:16;26.80;99.90
50067;DHT22;35952;52.524;13.340;2023-07-30T10:00:42;26.60;99.90
50067;DHT22;35952;52.524;13.340;2023-07-30T10:03:10;26.00;99.90
50067;DHT22;35952;52.524;13.340;2023-07-30T10:05:37;25.60;99.90
50067;DHT22;35952;52.524;13.340;2023-07-30T10:08:09;25.30;99.90
50067;DHT22;35952;52.524;13.340;2023-07-30T10:10:36;25.20;99.90
50067;DHT22;35952;52.524;13.340;2023-07-30T10:13:06;24.90;99.90
50067;DHT22;35952;52.524;13.340;2023-07-30T10:15:37;24.70;99.90
50067;DHT22;35952;52.524;13.340;2023-07-30T10:18:03;24.50;99.90
50067;DHT22;35952;52.524;13.340;2023-07-30T10:20:31;24.50;99.90
50067;DHT22;35952;52.524;13.340;2023-07-30T10:22:59;24.50;99.90
50067;DHT22;35952;52.524;13.340;2023-07-30T10:25:29;24.50;99.90
50067;DHT22;35952;52.524;13.340;2023-07-30T10:27:56;24.40;99.90
50067;DHT22;35952;52.524;13.340;2023-07-30T10:30:22;24.20;99.90
50067;DHT22;35952;52.524;13.340;2023-07-30T10:35:45;23.80;99.90
50067;DHT22;35952;52.524;13.340;2023-07-30T10:38:19;23.80;99.90
50067;DHT22;35952;52.524;13.340;2023-07-30T10:41:04;23.90;99.90
50067;DHT22;35952;52.524;13.340;2023-07-30T10:43:40;23.90;99.90
50067;DHT22;35952;52.524;13.340;2023-07-30T10:46:07;24.00;99.90
50067;DHT22;35952;52.524;13.340;2023-07-30T10:48:35;24.50;99.90
50067;DHT22;35952;52.524;13.340;2023-07-30T10:51:03;24.70;99.90
50067;DHT22;35952;52.524;13.340;2023-07-30T10:53:28;24.90;99.90
50067;DHT22;35952;52.524;13.340;2023-07-30T10:55:54;25.00;99.90
50067;DHT22;35952;52.524;13.340;2023-07-30T10:58:25;24.80;99.90
50067;DHT22;35952;52.524;13.340;2023-07-30T11:00:51;25.00;99.90
50067;DHT22;35952;52.524;13.340;2023-07-30T11:03:16;24.90;99.90
50067;DHT22;35952;52.524;13.340;2023-07-30T11:05:42;25.20;99.90
50067;DHT22;35952;52.524;13.340;2023-07-30T11:08:11;25.60;98.50
50067;DHT22;35952;52.524;13.340;2023-07-30T11:10:47;26.20;97.70
50067;DHT22;35952;52.524;13.340;2023-07-30T11:13:15;26.70;94.60
50067;DHT22;35952;52.524;13.340;2023-07-30T11:15:44;27.00;93.20
50067;DHT22;35952;52.524;13.340;2023-07-30T11:18:12;26.80;91.70
50067;DHT22;35952;52.524;13.340;2023-07-30T11:20:37;26.60;91.10
50067;DHT22;35952;52.524;13.340;2023-07-30T11:23:22;26.40;91.10
50067;DHT22;35952;52.524;13.340;2023-07-30T11:25:51;26.30;92.60
50067;DHT22;35952;52.524;13.340;2023-07-30T11:28:31;26.10;91.70
50067;DHT22;35952;52.524;13.340;2023-07-30T11:31:01;25.70;91.90
50067;DHT22;35952;52.524;13.340;2023-07-30T11:33:27;25.90;92.90
50067;DHT22;35952;52.524;13.340;2023-07-30T11:35:57;26.00;92.60
50067;DHT22;35952;52.524;13.340;2023-07-30T11:38:27;26.10;92.10
50067;DHT22;35952;52.524;13.340;2023-07-30T11:40:53;26.10;90.20
50067;DHT22;35952;52.524;13.340;2023-07-30T11:43:20;26.10;90.10
50067;DHT22;35952;52.524;13.340;2023-07-30T11:45:46;26.10;88.50
50067;DHT22;35952;52.524;13.340;2023-07-30T11:48:12;26.20;91.10
50067;DHT22;35952;52.524;13.340;2023-07-30T11:50:49;26.40;88.60
50067;DHT22;35952;52.524;13.340;2023-07-30T11:53:15;26.40;87.70
50067;DHT22;35952;52.524;13.340;2023-07-30T11:55:41;26.70;89.50
50067;DHT22;35952;52.524;13.340;2023-07-30T11:58:08;26.50;86.50
50067;DHT22;35952;52.524;13.340;2023-07-30T12:00:38;26.30;83.30
50067;DHT22;35952;52.524;13.340;2023-07-30T12:03:10;26.30;90.50
50067;DHT22;35952;52.524;13.340;2023-07-30T12:05:37;26.60;89.40
50067;DHT22;35952;52.524;13.340;2023-07-30T12:08:04;26.70;87.50
50067;DHT22;35952;52.524;13.340;2023-07-30T12:10:46;26.70;85.00
50067;DHT22;35952;52.524;13.340;2023-07-30T12:13:16;26.60;84.90
50067;DHT22;35952;52.524;13.340;2023-07-30T12:15:55;26.40;84.10
50067;DHT22;35952;52.524;13.340;2023-07-30T12:18:22;26.20;86.90
50067;DHT22;35952;52.524;13.340;2023-07-30T12:20:49;26.20;84.70
50067;DHT22;35952;52.524;13.340;2023-07-30T12:23:16;26.00;85.40
50067;DHT22;35952;52.524;13.340;2023-07-30T12:25:42;26.20;86.30
50067;DHT22;35952;52.524;13.340;2023-07-30T12:28:07;26.20;86.10
50067;DHT22;35952;52.524;13.340;2023-07-30T12:30:33;26.30;83.80
50067;DHT22;35952;52.524;13.340;2023-07-30T12:32:59;26.20;85.80
50067;DHT22;35952;52.524;13.340;2023-07-30T12:35:24;26.00;87.40
50067;DHT22;35952;52.524;13.340;2023-07-30T12:37:50;25.80;88.60
50067;DHT22;35952;52.524;13.340;2023-07-30T12:40:16;25.80;89.10
50067;DHT22;35952;52.524;13.340;2023-07-30T12:42:42;25.90;88.90
50067;DHT22;35952;52.524;13.340;2023-07-30T12:45:08;26.00;90.80
50067;DHT22;35952;52.524;13.340;2023-07-30T12:47:34;26.00;86.90
50067;DHT22;35952;52.524;13.340;2023-07-30T12:50:03;25.80;86.10
50067;DHT22;35952;52.524;13.340;2023-07-30T12:52:29;25.90;86.80
50067;DHT22;35952;52.524;13.340;2023-07-30T12:54:55;26.00;89.40
50067;DHT22;35952;52.524;13.340;2023-07-30T12:57:20;26.00;88.00
50067;DHT22;35952;52.524;13.340;2023-07-30T12:59:46;26.00;89.40
50067;DHT22;35952;52.524;13.340;2023-07-30T13:02:11;25.90;90.10
50067;DHT22;35952;52.524;13.340;2023-07-30T13:04:37;25.80;89.30
50067;DHT22;35952;52.524;13.340;2023-07-30T13:07:03;25.60;90.50
50067;DHT22;35952;52.524;13.340;2023-07-30T13:09:30;25.60;89.60
50067;DHT22;35952;52.524;13.340;2023-07-30T13:11:55;25.50;89.00
50067;DHT22;35952;52.524;13.340;2023-07-30T13:14:21;25.50;89.30
50067;DHT22;35952;52.524;13.340;2023-07-30T13:16:46;25.50;88.00
50067;DHT22;35952;52.524;13.340;2023-07-30T13:19:15;25.50;88.30
50067;DHT22;35952;52.524;13.340;2023-07-30T13:21:41;25.50;87.20
50067;DHT22;35952;52.524;13.340;2023-07-30T13:24:06;25.50;85.60
50067;DHT22;35952;52.524;13.340;2023-07-30T13:26:34;25.50;82.80
50067;DHT22;35952;52.524;13.340;2023-07-30T13:29:00;25.80;81.80
50067;DHT22;35952;52.524;13.340;2023-07-30T13:31:25;25.80;80.80
50067;DHT22;35952;52.524;13.340;2023-07-30T13:33:51;25.80;83.50
50067;DHT22;35952;52.524;13.340;2023-07-30T13:36:17;25.70;82.60
50067;DHT22;35952;52.524;13.340;2023-07-30T13:38:43;25.50;81.40
50067;DHT22;35952;52.524;13.340;2023-07-30T13:41:09;25.30;82.10
50067;DHT22;35952;52.524;13.340;2023-07-30T13:43:38;25.10;79.60
50067;DHT22;35952;52.524;13.340;2023-07-30T13:46:03;25.00;79.30
50067;DHT22;35952;52.524;13.340;2023-07-30T13:48:29;24.90;80.10
50067;DHT22;35952;52.524;13.340;2023-07-30T13:50:54;24.80;79.00
50067;DHT22;35952;52.524;13.340;2023-07-30T13:53:20;24.70;77.40
50067;DHT22;35952;52.524;13.340;2023-07-30T13:55:46;24.60;79.60
50067;DHT22;35952;52.524;13.340;2023-07-30T13:58:11;24.60;79.30
50067;DHT22;35952;52.524;13.340;2023-07-30T14:00:39;24.40;81.00
50067;DHT22;35952;52.524;13.340;2023-07-30T14:03:04;24.30;81.90
50067;DHT22;35952;52.524;13.340;2023-07-30T14:05:30;24.20;82.40
50067;DHT22;35952;52.524;13.340;2023-07-30T14:07:55;24.20;83.80
50067;DHT22;35952;52.524;13.340;2023-07-30T14:10:24;24.10;84.00
50067;DHT22;35952;52.524;13.340;2023-07-30T14:12:49;24.00;85.60
50067;DHT22;35952;52.524;13.340;2023-07-30T14:15:15;23.90;85.80
50067;DHT22;35952;52.524;13.340;2023-07-30T14:17:41;23.90;85.40
50067;DHT22;35952;52.524;13.340;2023-07-30T14:20:08;23.80;85.70
50067;DHT22;35952;52.524;13.340;2023-07-30T14:22:34;23.80;84.10
50067;DHT22;35952;52.524;13.340;2023-07-30T14:25:00;23.70;85.90
50067;DHT22;35952;52.524;13.340;2023-07-30T14:27:25;23.60;88.30
50067;DHT22;35952;52.524;13.340;2023-07-30T14:29:51;23.50;88.80
50067;DHT22;35952;52.524;13.340;2023-07-30T14:32:19;23.50;87.30
50067;DHT22;35952;52.524;13.340;2023-07-30T14:34:44;23.50;90.00
50067;DHT22;35952;52.524;13.340;2023-07-30T14:37:10;23.30;90.20
50067;DHT22;35952;52.524;13.340;2023-07-30T14:39:35;23.20;91.30
50067;DHT22;35952;52.524;13.340;2023-07-30T14:42:01;23.00;91.50
50067;DHT22;35952;52.524;13.340;2023-07-30T14:44:26;22.70;91.20
50067;DHT22;35952;52.524;13.340;2023-07-30T14:46:52;22.60;91.50
50067;DHT22;35952;52.524;13.340;2023-07-30T14:49:18;22.50;92.00
50067;DHT22;35952;52.524;13.340;2023-07-30T14:51:43;22.30;92.70
50067;DHT22;35952;52.524;13.340;2023-07-30T14:54:09;22.30;91.90
50067;DHT22;35952;52.524;13.340;2023-07-30T14:56:35;22.30;91.60
50067;DHT22;35952;52.524;13.340;2023-07-30T14:59:01;22.20;92.40
50067;DHT22;35952;52.524;13.340;2023-07-30T15:01:30;22.10;93.40
50067;DHT22;35952;52.524;13.340;2023-07-30T15:03:56;21.80;95.40
50067;DHT22;35952;52.524;13.340;2023-07-30T15:06:21;21.60;97.40
50067;DHT22;35952;52.524;13.340;2023-07-30T15:08:47;21.40;99.50
50067;DHT22;35952;52.524;13.340;2023-07-30T15:11:13;21.20;99.90
50067;DHT22;35952;52.524;13.340;2023-07-30T15:13:39;21.10;99.90